Time;durP1;ratioP1;P1;durP2;ratioP2;P2;SDS_P1;SDS_P2;PMS_P1;PMS_P2;Temp;Humidity;BMP_temperature;BMP_pressure;BME280_temperature;BME280_humidity;BME280_pressure;Samples;Min_cycle;Max_cycle;Signal;HPM_P1;HPM_P2
2022/07/12 00:01:55;;;;;;;1.20;0.73;;;;;;;;;;4925423;29;20146;-65
2022/07/12 00:04:21;;;;;;;1.67;0.70;;;;;;;;;;4931219;29;20063;-64
2022/07/12 00:06:48;;;;;;;1.40;0.80;;;;;;;;;;4926172;29;20138;-65
2022/07/12 00:09:17;;;;;;;1.27;0.82;;;;;;;;;;4930430;29;20051;-65
2022/07/12 00:11:44;;;;;;;1.80;0.88;;;;;;;;;;4931171;29;20082;-65
2022/07/12 00:14:11;;;;;;;1.70;1.00;;;;;;;;;;4925799;29;20180;-64
2022/07/12 00:16:37;;;;;;;1.10;0.90;;;;;;;;;;4931256;29;20123;-64
2022/07/12 00:19:05;;;;;;;1.75;0.82;;;;;;;;;;4924810;29;20057;-64
2022/07/12 00:21:32;;;;;;;1.08;0.77;;;;;;;;;;4930588;29;20224;-64
2022/07/12 00:23:58;;;;;;;2.10;0.88;;;;;;;;;;4926318;29;20052;-64
2022/07/12 00:26:26;;;;;;;1.83;1.00;;;;;;;;;;4932327;28;20039;-64
2022/07/12 00:28:53;;;;;;;1.67;0.80;;;;;;;;;;4926097;28;20058;-64
2022/07/12 00:31:21;;;;;;;1.00;0.90;;;;;;;;;;4931070;29;20059;-63
2022/07/12 00:33:47;;;;;;;0.88;0.70;;;;;;;;;;4926243;29;20115;-64
2022/07/12 00:36:14;;;;;;;1.75;0.85;;;;;;;;;;4930218;28;20051;-66
2022/07/12 00:38:40;;;;;;;1.20;0.80;;;;;;;;;;4930367;28;20047;-64
2022/07/12 00:41:07;;;;;;;1.48;0.88;;;;;;;;;;4926475;29;20060;-64
2022/07/12 00:43:35;;;;;;;4.55;0.93;;;;;;;;;;4930988;29;20056;-64
2022/07/12 00:46:02;;;;;;;2.92;0.80;;;;;;;;;;4925815;29;20083;-66
2022/07/12 00:48:32;;;;;;;1.35;0.80;;;;;;;;;;4930824;29;20067;-65
2022/07/12 00:50:59;;;;;;;1.40;0.90;;;;;;;;;;4925303;29;20069;-65
2022/07/12 00:53:26;;;;;;;0.70;0.63;;;;;;;;;;4930613;28;20064;-65
2022/07/12 00:55:54;;;;;;;1.42;0.82;;;;;;;;;;4925931;28;20055;-66
2022/07/12 00:58:22;;;;;;;1.60;0.73;;;;;;;;;;4930812;29;20063;-65
2022/07/12 01:00:51;;;;;;;1.63;0.80;;;;;;;;;;4941007;28;20059;-66
2022/07/12 01:03:19;;;;;;;1.13;0.80;;;;;;;;;;4959311;28;20063;-65
2022/07/12 01:05:45;;;;;;;1.50;0.90;;;;;;;;;;4924685;29;20055;-64
2022/07/12 01:08:12;;;;;;;0.90;0.80;;;;;;;;;;4962294;28;20055;-66
2022/07/12 01:10:40;;;;;;;1.35;0.80;;;;;;;;;;4925310;29;20064;-65
2022/07/12 01:13:07;;;;;;;1.92;0.73;;;;;;;;;;4930006;29;20060;-65
2022/07/12 01:15:33;;;;;;;1.55;0.80;;;;;;;;;;4925325;29;20094;-65
2022/07/12 01:18:03;;;;;;;0.70;0.70;;;;;;;;;;4930955;29;20099;-65
2022/07/12 01:20:32;;;;;;;1.33;0.80;;;;;;;;;;4926298;29;20059;-66
2022/07/12 01:23:00;;;;;;;1.45;0.73;;;;;;;;;;4911231;29;20058;-65
2022/07/12 01:25:27;;;;;;;1.15;0.75;;;;;;;;;;4909646;29;20056;-65
2022/07/12 01:27:54;;;;;;;1.63;0.80;;;;;;;;;;4937897;29;20075;-66
2022/07/12 01:30:21;;;;;;;0.98;0.70;;;;;;;;;;4930490;29;20067;-66
2022/07/12 01:32:50;;;;;;;0.80;0.67;;;;;;;;;;4924470;29;20143;-66
2022/07/12 01:35:17;;;;;;;1.35;0.70;;;;;;;;;;4929078;29;20047;-66
2022/07/12 01:37:44;;;;;;;1.42;0.70;;;;;;;;;;4925060;28;20051;-66
2022/07/12 01:40:20;;;;;;;0.75;0.70;;;;;;;;;;4929813;29;20064;-66
2022/07/12 01:42:47;;;;;;;1.55;0.90;;;;;;;;;;4925146;29;20056;-66
2022/07/12 01:45:14;;;;;;;1.00;0.90;;;;;;;;;;4929649;29;20087;-66
2022/07/12 01:47:40;;;;;;;1.52;0.80;;;;;;;;;;4924722;29;20079;-66
2022/07/12 01:50:09;;;;;;;1.30;0.80;;;;;;;;;;4930309;29;20059;-66
2022/07/12 01:52:36;;;;;;;2.50;0.80;;;;;;;;;;4924688;29;20067;-65
2022/07/12 01:55:03;;;;;;;1.25;0.70;;;;;;;;;;4929741;29;20063;-66
2022/07/12 01:57:32;;;;;;;1.45;0.70;;;;;;;;;;4924670;29;20050;-66
2022/07/12 02:00:00;;;;;;;0.82;0.80;;;;;;;;;;4919081;29;20059;-65
2022/07/12 02:02:27;;;;;;;0.77;0.70;;;;;;;;;;4918608;29;20066;-64
2022/07/12 02:04:54;;;;;;;0.70;0.60;;;;;;;;;;4911630;29;20062;-64
2022/07/12 02:07:20;;;;;;;0.85;0.77;;;;;;;;;;4908827;29;20056;-65
2022/07/12 02:09:48;;;;;;;1.48;0.88;;;;;;;;;;4914423;29;20075;-66
2022/07/12 02:12:15;;;;;;;0.90;0.70;;;;;;;;;;4914532;29;20048;-64
2022/07/12 02:14:42;;;;;;;1.88;0.98;;;;;;;;;;4926932;29;20047;-66
2022/07/12 02:17:09;;;;;;;1.40;0.80;;;;;;;;;;4933132;29;20051;-65
2022/07/12 02:19:36;;;;;;;1.27;0.90;;;;;;;;;;4913221;29;20063;-66
2022/07/12 02:22:02;;;;;;;0.70;0.70;;;;;;;;;;4914243;29;20064;-66
2022/07/12 02:24:29;;;;;;;0.95;0.75;;;;;;;;;;4909077;29;20067;-66
2022/07/12 02:26:56;;;;;;;1.00;0.77;;;;;;;;;;4913855;29;20048;-66
2022/07/12 02:29:22;;;;;;;1.13;0.75;;;;;;;;;;4908653;29;20060;-66
2022/07/12 02:31:51;;;;;;;1.20;0.80;;;;;;;;;;4914189;29;20056;-66
2022/07/12 02:34:17;;;;;;;1.33;0.93;;;;;;;;;;4909292;29;20072;-66
2022/07/12 02:36:44;;;;;;;1.17;0.80;;;;;;;;;;4913730;29;20059;-66
2022/07/12 02:39:11;;;;;;;1.83;0.90;;;;;;;;;;4909184;29;20055;-66
2022/07/12 02:41:37;;;;;;;1.75;0.80;;;;;;;;;;4914337;29;20056;-66
2022/07/12 02:44:04;;;;;;;1.33;0.98;;;;;;;;;;4909263;29;20108;-66
2022/07/12 02:46:31;;;;;;;1.50;0.77;;;;;;;;;;4914191;29;20060;-66
2022/07/12 02:48:59;;;;;;;1.02;0.80;;;;;;;;;;4909751;29;20052;-65
2022/07/12 02:51:26;;;;;;;1.55;1.00;;;;;;;;;;4913735;29;20063;-64
2022/07/12 02:53:52;;;;;;;1.20;0.80;;;;;;;;;;4914061;29;20056;-66
2022/07/12 02:56:19;;;;;;;0.82;0.70;;;;;;;;;;4908793;29;20060;-64
2022/07/12 02:58:45;;;;;;;2.20;0.80;;;;;;;;;;4914343;29;20052;-66
2022/07/12 03:01:13;;;;;;;0.85;0.80;;;;;;;;;;4909501;29;20064;-66
2022/07/12 03:03:40;;;;;;;2.10;0.83;;;;;;;;;;4935106;29;20142;-66
2022/07/12 03:06:08;;;;;;;0.90;0.70;;;;;;;;;;4930801;29;20054;-66
2022/07/12 03:08:34;;;;;;;2.30;0.90;;;;;;;;;;4935137;29;20055;-66
2022/07/12 03:11:01;;;;;;;0.90;0.70;;;;;;;;;;4930464;29;20051;-65
2022/07/12 03:13:27;;;;;;;1.10;0.80;;;;;;;;;;4935574;28;20044;-66
2022/07/12 03:15:54;;;;;;;1.58;0.80;;;;;;;;;;4929966;28;20071;-65
2022/07/12 03:18:21;;;;;;;1.35;0.80;;;;;;;;;;4935407;29;20077;-66
2022/07/12 03:20:48;;;;;;;1.30;0.80;;;;;;;;;;4929955;29;20113;-66
2022/07/12 03:23:16;;;;;;;0.93;0.80;;;;;;;;;;4935419;29;20055;-65
2022/07/12 03:25:43;;;;;;;2.13;0.80;;;;;;;;;;4929320;28;20058;-66
2022/07/12 03:28:10;;;;;;;2.15;0.80;;;;;;;;;;4935042;28;20047;-66
2022/07/12 03:30:37;;;;;;;1.00;0.80;;;;;;;;;;4930103;28;20082;-66
2022/07/12 03:33:04;;;;;;;2.15;0.90;;;;;;;;;;4967386;28;20118;-66
2022/07/12 03:35:30;;;;;;;2.25;1.42;;;;;;;;;;4934377;28;20051;-64
2022/07/12 03:37:57;;;;;;;1.42;0.90;;;;;;;;;;4947363;28;20047;-66
2022/07/12 03:40:25;;;;;;;2.38;1.00;;;;;;;;;;4935603;29;20055;-64
2022/07/12 03:42:52;;;;;;;1.05;0.82;;;;;;;;;;4929504;29;20055;-64
2022/07/12 03:45:19;;;;;;;1.33;0.80;;;;;;;;;;4934006;29;20086;-66
2022/07/12 03:47:46;;;;;;;1.67;0.93;;;;;;;;;;4929386;29;20053;-65
2022/07/12 03:50:14;;;;;;;1.80;0.90;;;;;;;;;;4934809;29;20059;-66
2022/07/12 03:52:41;;;;;;;1.20;0.80;;;;;;;;;;4960227;28;20063;-66
2022/07/12 03:55:09;;;;;;;1.90;0.88;;;;;;;;;;4933673;28;20051;-66
2022/07/12 03:57:37;;;;;;;1.58;0.90;;;;;;;;;;4928463;28;20082;-66
2022/07/12 04:00:05;;;;;;;1.05;0.77;;;;;;;;;;4934059;29;20051;-66
2022/07/12 04:02:31;;;;;;;;;;;;;;;;;;4925578;29;20055;-66
2022/07/12 04:04:58;;;;;;;1.23;0.90;;;;;;;;;;4920168;28;19937;-65
2022/07/12 04:07:25;;;;;;;2.70;0.98;;;;;;;;;;4890936;28;20055;-65
2022/07/12 04:09:52;;;;;;;1.48;0.90;;;;;;;;;;4927958;28;20047;-66
2022/07/12 04:12:19;;;;;;;1.60;0.93;;;;;;;;;;4926050;28;20051;-66
2022/07/12 04:14:47;;;;;;;0.93;0.85;;;;;;;;;;4926460;28;20052;-66
2022/07/12 04:17:15;;;;;;;1.30;0.90;;;;;;;;;;4929852;28;20048;-65
2022/07/12 04:19:41;;;;;;;1.88;1.00;;;;;;;;;;4922076;28;20048;-66
2022/07/12 04:22:08;;;;;;;1.50;0.82;;;;;;;;;;4930181;28;20052;-66
2022/07/12 04:24:35;;;;;;;1.83;0.75;;;;;;;;;;4922402;28;20058;-66
2022/07/12 04:27:01;;;;;;;1.70;1.10;;;;;;;;;;4929681;28;20083;-65
2022/07/12 04:29:29;;;;;;;1.75;0.90;;;;;;;;;;4922093;28;20068;-67
2022/07/12 04:31:57;;;;;;;1.27;0.90;;;;;;;;;;4928001;28;20066;-65
2022/07/12 04:34:24;;;;;;;3.15;0.90;;;;;;;;;;4928484;29;20123;-66
2022/07/12 04:36:50;;;;;;;2.20;1.13;;;;;;;;;;4921184;29;20122;-64
2022/07/12 04:39:17;;;;;;;1.60;0.90;;;;;;;;;;4928583;29;20060;-65
2022/07/12 04:41:43;;;;;;;1.42;0.90;;;;;;;;;;4921782;29;20072;-65
2022/07/12 04:44:10;;;;;;;4.22;1.10;;;;;;;;;;4927426;29;20078;-65
2022/07/12 04:46:36;;;;;;;1.90;1.08;;;;;;;;;;4916867;29;20144;-66
2022/07/12 04:49:06;;;;;;;1.65;0.93;;;;;;;;;;4910426;29;20064;-66
2022/07/12 04:51:32;;;;;;;1.60;0.90;;;;;;;;;;4906277;29;20065;-65
2022/07/12 04:53:59;;;;;;;1.40;0.90;;;;;;;;;;4906194;29;20064;-66
2022/07/12 04:56:25;;;;;;;1.70;1.00;;;;;;;;;;4909153;29;20044;-66
2022/07/12 04:58:52;;;;;;;1.50;0.98;;;;;;;;;;4902140;29;20096;-65
2022/07/12 05:01:19;;;;;;;1.48;0.90;;;;;;;;;;4902076;29;20070;-66
2022/07/12 05:03:45;;;;;;;1.55;0.93;;;;;;;;;;4901394;29;20056;-64
2022/07/12 05:06:15;;;;;;;1.42;1.00;;;;;;;;;;4912405;29;20060;-64
2022/07/12 05:08:42;;;;;;;2.58;1.55;;;;;;;;;;4903102;29;20052;-66
2022/07/12 05:11:09;;;;;;;2.78;1.10;;;;;;;;;;4914401;29;20051;-66
2022/07/12 05:13:36;;;;;;;1.67;0.85;;;;;;;;;;4926307;29;20059;-64
2022/07/12 05:16:02;;;;;;;1.83;1.10;;;;;;;;;;4907926;29;20243;-64
2022/07/12 05:18:29;;;;;;;2.15;1.05;;;;;;;;;;4912572;29;20110;-67
2022/07/12 05:20:57;;;;;;;2.42;1.05;;;;;;;;;;4904499;29;20065;-65
2022/07/12 05:23:25;;;;;;;2.13;0.90;;;;;;;;;;4913503;29;20067;-65
2022/07/12 05:25:51;;;;;;;2.90;0.98;;;;;;;;;;4905484;29;20123;-66
2022/07/12 05:28:18;;;;;;;2.65;1.10;;;;;;;;;;4912762;29;20047;-65
2022/07/12 05:30:46;;;;;;;3.95;1.10;;;;;;;;;;4906448;29;20059;-67
2022/07/12 05:33:13;;;;;;;1.30;0.93;;;;;;;;;;4911176;29;20075;-66
2022/07/12 05:35:39;;;;;;;3.38;1.67;;;;;;;;;;4912887;29;20074;-66
2022/07/12 05:38:06;;;;;;;2.00;1.15;;;;;;;;;;4903524;29;20047;-66
2022/07/12 05:40:34;;;;;;;9.73;4.63;;;;;;;;;;4915413;29;20143;-66
2022/07/12 05:43:01;;;;;;;5.47;3.10;;;;;;;;;;4911603;29;20052;-66
2022/07/12 05:45:27;;;;;;;7.72;3.30;;;;;;;;;;4916763;29;20044;-67
2022/07/12 05:47:54;;;;;;;4.03;1.77;;;;;;;;;;4911574;29;20060;-66
2022/07/12 05:50:20;;;;;;;5.75;3.30;;;;;;;;;;4918143;29;20111;-65
2022/07/12 05:55:31;;;;;;;5.57;3.30;;;;;;;;;;4916246;29;20051;-66
2022/07/12 05:57:59;;;;;;;5.45;1.88;;;;;;;;;;4913967;29;20059;-67
2022/07/12 06:00:29;;;;;;;4.88;2.63;;;;;;;;;;4909791;29;20051;-66
2022/07/12 06:02:56;;;;;;;6.15;3.20;;;;;;;;;;4914063;29;20107;-65
2022/07/12 06:05:23;;;;;;;7.47;3.17;;;;;;;;;;4907488;29;20048;-66
2022/07/12 06:07:49;;;;;;;3.50;1.83;;;;;;;;;;4914931;29;20139;-66
2022/07/12 06:10:16;;;;;;;5.70;2.45;;;;;;;;;;4908535;29;20063;-66
2022/07/12 06:12:42;;;;;;;7.60;3.92;;;;;;;;;;4914161;29;20111;-67
2022/07/12 06:15:11;;;;;;;7.05;3.90;;;;;;;;;;4912773;29;20076;-67
2022/07/12 06:17:38;;;;;;;7.10;3.80;;;;;;;;;;4910016;29;20063;-66
2022/07/12 06:20:05;;;;;;;6.30;3.53;;;;;;;;;;4913038;29;20060;-67
2022/07/12 06:22:31;;;;;;;6.82;3.60;;;;;;;;;;4908106;29;20060;-66
2022/07/12 06:24:58;;;;;;;5.18;2.08;;;;;;;;;;4930921;29;20139;-66
2022/07/12 06:27:24;;;;;;;7.63;3.80;;;;;;;;;;4924620;29;20148;-67
2022/07/12 06:29:51;;;;;;;3.95;2.15;;;;;;;;;;4930227;29;20111;-67
2022/07/12 06:32:19;;;;;;;5.57;3.25;;;;;;;;;;4908146;29;20056;-66
2022/07/12 06:34:46;;;;;;;6.18;3.03;;;;;;;;;;4931952;29;20067;-65
2022/07/12 06:37:14;;;;;;;3.60;1.65;;;;;;;;;;4927018;29;20190;-67
2022/07/12 06:39:40;;;;;;;6.95;4.22;;;;;;;;;;4931556;28;20067;-67
2022/07/12 06:42:07;;;;;;;6.18;3.78;;;;;;;;;;4927016;28;20047;-65
2022/07/12 06:44:34;;;;;;;10.82;4.07;;;;;;;;;;4932523;28;20043;-66
2022/07/12 06:47:01;;;;;;;7.32;4.13;;;;;;;;;;4928539;28;20103;-66
2022/07/12 06:49:29;;;;;;;4.97;1.95;;;;;;;;;;4951144;28;20051;-66
2022/07/12 06:51:56;;;;;;;5.15;1.95;;;;;;;;;;4951739;28;20047;-67
2022/07/12 06:54:22;;;;;;;11.25;4.90;;;;;;;;;;4928703;28;20067;-68
2022/07/12 06:56:49;;;;;;;9.02;5.10;;;;;;;;;;4933118;28;20043;-68
2022/07/12 06:59:17;;;;;;;7.55;4.07;;;;;;;;;;4927741;28;20064;-66
2022/07/12 07:01:43;;;;;;;5.18;2.90;;;;;;;;;;4933916;28;20067;-67
2022/07/12 07:04:10;;;;;;;7.80;4.32;;;;;;;;;;4958968;28;20066;-68
2022/07/12 07:06:38;;;;;;;7.22;3.90;;;;;;;;;;4916193;29;20055;-66
2022/07/12 07:09:07;;;;;;;4.47;2.22;;;;;;;;;;4914112;29;20054;-67
2022/07/12 07:11:33;;;;;;;6.78;3.60;;;;;;;;;;4935415;29;20059;-66
2022/07/12 07:14:00;;;;;;;12.35;4.43;;;;;;;;;;4929516;29;20058;-66
2022/07/12 07:16:26;;;;;;;7.10;3.58;;;;;;;;;;4935406;29;20059;-64
2022/07/12 07:18:53;;;;;;;6.45;3.72;;;;;;;;;;4929952;29;20051;-66
2022/07/12 07:21:20;;;;;;;8.07;3.70;;;;;;;;;;4967541;28;20062;-66
2022/07/12 07:23:48;;;;;;;8.15;4.90;;;;;;;;;;4929852;29;20128;-65
2022/07/12 07:26:15;;;;;;;5.28;3.35;;;;;;;;;;4935309;29;20055;-65
2022/07/12 07:31:22;;;;;;;7.32;3.38;;;;;;;;;;4933753;29;20139;-65
2022/07/12 07:33:48;;;;;;;11.02;3.58;;;;;;;;;;4930842;28;20063;-66
2022/07/12 07:36:15;;;;;;;6.07;3.47;;;;;;;;;;4936936;28;20056;-64
2022/07/12 07:38:41;;;;;;;8.18;3.60;;;;;;;;;;4935480;29;20055;-66
2022/07/12 07:41:09;;;;;;;7.05;3.58;;;;;;;;;;4927578;29;20059;-65
2022/07/12 07:43:36;;;;;;;10.98;4.68;;;;;;;;;;4933376;29;20055;-65
2022/07/12 07:46:03;;;;;;;9.00;4.68;;;;;;;;;;4928255;29;20059;-67
2022/07/12 07:48:30;;;;;;;8.80;4.80;;;;;;;;;;4933838;29;20138;-67
2022/07/12 07:50:57;;;;;;;8.77;3.85;;;;;;;;;;4918437;29;20110;-66
2022/07/12 07:53:24;;;;;;;11.40;3.47;;;;;;;;;;4913818;29;20082;-67
2022/07/12 07:55:51;;;;;;;6.80;3.35;;;;;;;;;;4918969;29;20145;-65
2022/07/12 07:58:20;;;;;;;8.88;4.63;;;;;;;;;;4934562;29;20058;-66
2022/07/12 08:00:47;;;;;;;11.70;4.57;;;;;;;;;;4929017;29;20051;-66
2022/07/12 08:03:14;;;;;;;9.85;2.60;;;;;;;;;;4917663;29;20056;-66
2022/07/12 08:05:40;;;;;;;7.90;4.28;;;;;;;;;;4875983;29;20080;-67
2022/07/12 08:08:07;;;;;;;9.23;3.40;;;;;;;;;;4893929;29;20057;-66
2022/07/12 08:10:34;;;;;;;6.85;3.67;;;;;;;;;;4885905;29;20064;-65
2022/07/12 08:13:01;;;;;;;8.65;4.07;;;;;;;;;;4875127;29;20052;-65
2022/07/12 08:15:29;;;;;;;8.13;4.35;;;;;;;;;;4873670;29;20146;-66
2022/07/12 08:17:55;;;;;;;7.65;2.50;;;;;;;;;;4886948;29;20136;-67
2022/07/12 08:20:23;;;;;;;8.07;4.25;;;;;;;;;;4892548;29;20061;-67
2022/07/12 08:22:49;;;;;;;7.75;3.55;;;;;;;;;;4886032;29;20084;-66
2022/07/12 08:25:16;;;;;;;5.50;3.05;;;;;;;;;;4892120;29;20053;-65
2022/07/12 08:27:43;;;;;;;7.57;4.28;;;;;;;;;;4886704;29;20057;-65
2022/07/12 08:30:10;;;;;;;5.00;2.30;;;;;;;;;;4892587;29;20125;-65
2022/07/12 08:32:43;;;;;;;6.03;3.33;;;;;;;;;;4888963;29;20056;-66
2022/07/12 08:35:10;;;;;;;6.57;2.28;;;;;;;;;;4890606;29;20077;-66
2022/07/12 08:37:37;;;;;;;7.30;3.97;;;;;;;;;;4893297;29;20056;-66
2022/07/12 08:40:04;;;;;;;5.88;3.35;;;;;;;;;;4886067;29;20057;-65
2022/07/12 08:42:30;;;;;;;12.20;4.20;;;;;;;;;;4891132;29;20052;-66
2022/07/12 08:44:57;;;;;;;8.50;3.63;;;;;;;;;;4885070;29;20108;-65
2022/07/12 08:47:24;;;;;;;6.57;3.25;;;;;;;;;;4892314;29;20055;-66
2022/07/12 08:50:11;;;;;;;5.70;3.10;;;;;;;;;;4886014;29;20056;-65
2022/07/12 08:52:41;;;;;;;6.25;3.10;;;;;;;;;;4891152;29;20122;-65
2022/07/12 08:55:21;;;;;;;8.88;3.70;;;;;;;;;;4888666;29;20045;-65
2022/07/12 08:57:48;;;;;;;6.22;3.38;;;;;;;;;;4891666;29;20067;-65
2022/07/12 09:00:15;;;;;;;7.45;3.75;;;;;;;;;;4892002;29;20092;-66
2022/07/12 09:02:46;;;;;;;5.18;2.38;;;;;;;;;;4894840;29;20060;-66
2022/07/12 09:05:13;;;;;;;7.38;3.70;;;;;;;;;;4910844;29;20064;-65
2022/07/12 09:07:41;;;;;;;5.47;3.20;;;;;;;;;;4905402;29;20060;-65
2022/07/12 09:10:09;;;;;;;5.30;3.10;;;;;;;;;;4911801;29;20066;-65
2022/07/12 09:12:36;;;;;;;11.33;3.63;;;;;;;;;;4905155;29;20071;-65
2022/07/12 09:15:16;;;;;;;4.30;1.90;;;;;;;;;;4916609;29;20052;-65
2022/07/12 09:17:47;;;;;;;2.03;1.48;;;;;;;;;;4913051;29;20164;-66
2022/07/12 09:20:16;;;;;;;4.63;2.30;;;;;;;;;;4916515;29;20127;-67
2022/07/12 09:22:52;;;;;;;2.70;1.40;;;;;;;;;;4917937;29;20083;-67
2022/07/12 09:25:18;;;;;;;4.47;2.67;;;;;;;;;;4911781;29;20052;-66
2022/07/12 09:27:49;;;;;;;5.82;3.17;;;;;;;;;;4917644;29;20052;-67
2022/07/12 09:30:17;;;;;;;6.55;3.80;;;;;;;;;;4930320;29;20052;-67
2022/07/12 09:38:19;;;;;;;8.77;3.10;;;;;;;;;;4935879;29;20067;-67
2022/07/12 09:40:49;;;;;;;6.22;3.80;;;;;;;;;;4932008;28;20142;-66
2022/07/12 09:43:16;;;;;;;6.85;3.67;;;;;;;;;;4936092;29;20059;-67
2022/07/12 09:45:44;;;;;;;5.32;2.30;;;;;;;;;;4927250;29;20052;-67
2022/07/12 09:48:11;;;;;;;5.73;3.33;;;;;;;;;;4935090;28;20055;-67
2022/07/12 09:50:39;;;;;;;5.72;2.63;;;;;;;;;;4917384;28;20051;-67
2022/07/12 09:53:06;;;;;;;5.60;3.10;;;;;;;;;;4936235;28;20048;-67
2022/07/12 09:55:35;;;;;;;3.07;2.00;;;;;;;;;;4930651;28;20066;-67
2022/07/12 09:58:02;;;;;;;7.85;3.03;;;;;;;;;;4935718;28;20147;-67
2022/07/12 10:00:30;;;;;;;4.55;2.22;;;;;;;;;;4933042;28;20047;-67
2022/07/12 10:02:59;;;;;;;6.38;2.85;;;;;;;;;;4938815;29;20083;-67
2022/07/12 10:05:26;;;;;;;5.22;2.60;;;;;;;;;;4881616;29;20155;-67
2022/07/12 10:07:52;;;;;;;4.78;2.20;;;;;;;;;;4902773;29;20075;-66
2022/07/12 10:10:19;;;;;;;6.90;2.42;;;;;;;;;;4924617;29;20064;-66
2022/07/12 10:12:47;;;;;;;3.47;1.60;;;;;;;;;;4897910;29;20071;-66
2022/07/12 10:15:14;;;;;;;;;;;;;;;;;;4897999;29;20061;-67
2022/07/12 10:17:42;;;;;;;7.72;3.28;;;;;;;;;;4909593;29;19930;-67
2022/07/12 10:20:17;;;;;;;3.08;1.50;;;;;;;;;;4916320;29;20059;-67
2022/07/12 10:22:44;;;;;;;4.03;1.70;;;;;;;;;;4910644;29;20146;-67
2022/07/12 10:25:29;;;;;;;3.67;1.83;;;;;;;;;;4914113;29;20060;-67
2022/07/12 10:27:58;;;;;;;3.65;2.30;;;;;;;;;;4907024;29;20048;-67
2022/07/12 10:30:25;;;;;;;3.83;2.28;;;;;;;;;;4912912;29;20052;-67
2022/07/12 10:32:53;;;;;;;3.42;1.83;;;;;;;;;;4907596;29;20056;-67
2022/07/12 10:35:21;;;;;;;4.53;1.90;;;;;;;;;;4913185;29;20060;-66
2022/07/12 10:38:02;;;;;;;2.67;1.60;;;;;;;;;;4912879;29;20048;-66
2022/07/12 10:40:34;;;;;;;4.03;2.13;;;;;;;;;;4925978;29;20067;-66
2022/07/12 10:43:16;;;;;;;3.40;1.90;;;;;;;;;;4913283;29;20060;-66
2022/07/12 10:45:43;;;;;;;2.85;1.70;;;;;;;;;;4907779;29;20108;-66
2022/07/12 10:48:19;;;;;;;4.72;2.40;;;;;;;;;;4914136;29;20051;-66
2022/07/12 10:51:06;;;;;;;3.35;1.75;;;;;;;;;;4907228;29;20051;-66
2022/07/12 10:53:34;;;;;;;4.95;2.85;;;;;;;;;;4908780;29;20060;-66
2022/07/12 10:56:15;;;;;;;6.27;2.27;;;;;;;;;;4916112;29;20055;-66
2022/07/12 10:58:44;;;;;;;6.13;2.83;;;;;;;;;;4895219;29;20052;-67
2022/07/12 11:01:13;;;;;;;5.60;2.65;;;;;;;;;;4888446;29;20064;-66
2022/07/12 11:03:41;;;;;;;3.88;1.67;;;;;;;;;;4908984;29;20124;-66
2022/07/12 11:06:08;;;;;;;5.82;2.28;;;;;;;;;;4909676;29;20063;-67
2022/07/12 11:08:47;;;;;;;3.75;2.20;;;;;;;;;;4910945;29;20052;-66
2022/07/12 11:11:14;;;;;;;3.08;1.75;;;;;;;;;;4913387;29;20056;-66
2022/07/12 11:13:40;;;;;;;9.32;3.28;;;;;;;;;;4906853;29;20088;-66
2022/07/12 11:16:08;;;;;;;3.30;1.45;;;;;;;;;;4913069;29;20056;-67
2022/07/12 11:18:36;;;;;;;3.10;1.70;;;;;;;;;;4906355;29;20060;-66
2022/07/12 11:21:03;;;;;;;6.75;3.80;;;;;;;;;;4913116;29;20067;-66
2022/07/12 11:23:30;;;;;;;4.28;2.42;;;;;;;;;;4908541;29;20052;-66
2022/07/12 11:25:58;;;;;;;2.45;1.52;;;;;;;;;;4930370;29;20044;-66
2022/07/12 11:28:25;;;;;;;3.38;1.73;;;;;;;;;;4924839;29;20067;-66
2022/07/12 11:30:52;;;;;;;6.15;2.67;;;;;;;;;;4925417;29;20048;-66
2022/07/12 11:33:20;;;;;;;4.75;2.00;;;;;;;;;;4921769;29;20056;-66
2022/07/12 11:35:47;;;;;;;3.15;1.77;;;;;;;;;;4893834;29;20052;-66
2022/07/12 11:38:14;;;;;;;5.57;2.30;;;;;;;;;;4893207;29;20139;-66
2022/07/12 11:40:40;;;;;;;2.55;1.70;;;;;;;;;;4889335;29;20072;-66
2022/07/12 11:43:07;;;;;;;7.50;3.55;;;;;;;;;;4894095;29;20126;-66
2022/07/12 11:45:34;;;;;;;8.13;2.88;;;;;;;;;;4887903;29;20060;-66
2022/07/12 11:48:02;;;;;;;8.18;3.65;;;;;;;;;;4893210;29;20052;-67
2022/07/12 11:50:30;;;;;;;6.18;2.53;;;;;;;;;;4901337;29;20048;-67
2022/07/12 11:52:57;;;;;;;5.30;2.70;;;;;;;;;;4920099;29;20052;-66
2022/07/12 11:55:24;;;;;;;3.30;1.90;;;;;;;;;;4894907;29;20055;-66
2022/07/12 11:57:50;;;;;;;2.10;1.20;;;;;;;;;;4892970;29;20068;-66
2022/07/12 12:00:18;;;;;;;5.82;3.50;;;;;;;;;;4890170;29;20056;-66
2022/07/12 12:02:45;;;;;;;6.28;3.35;;;;;;;;;;4911494;29;20060;-66
2022/07/12 12:05:12;;;;;;;13.60;3.60;;;;;;;;;;4899653;29;20053;-66
2022/07/12 12:07:40;;;;;;;4.72;2.15;;;;;;;;;;4892674;29;20052;-66
2022/07/12 12:10:11;;;;;;;4.40;2.28;;;;;;;;;;4887838;29;20052;-67
2022/07/12 12:12:39;;;;;;;3.80;1.95;;;;;;;;;;4894192;29;20048;-67
2022/07/12 12:15:07;;;;;;;2.70;1.75;;;;;;;;;;4890762;29;20083;-66
2022/07/12 12:17:34;;;;;;;4.67;2.37;;;;;;;;;;4927334;29;20060;-66
2022/07/12 12:20:13;;;;;;;6.07;3.72;;;;;;;;;;4922105;29;20300;-66
2022/07/12 12:22:40;;;;;;;5.35;2.80;;;;;;;;;;4909372;29;20061;-67
2022/07/12 12:25:13;;;;;;;6.63;3.63;;;;;;;;;;4891463;29;20121;-66
2022/07/12 12:27:49;;;;;;;5.80;2.85;;;;;;;;;;4908533;29;20056;-67
2022/07/12 12:30:17;;;;;;;3.13;1.88;;;;;;;;;;4910581;29;20083;-66
2022/07/12 12:32:47;;;;;;;5.45;2.40;;;;;;;;;;4941730;28;20058;-67
2022/07/12 12:35:14;;;;;;;2.30;1.38;;;;;;;;;;4930014;28;20055;-66
2022/07/12 12:37:48;;;;;;;3.55;2.15;;;;;;;;;;4925400;28;20051;-66
2022/07/12 12:40:23;;;;;;;3.92;2.15;;;;;;;;;;4930416;29;20059;-67
2022/07/12 12:42:49;;;;;;;4.63;2.08;;;;;;;;;;4912536;28;20115;-67
2022/07/12 12:45:23;;;;;;;5.55;3.10;;;;;;;;;;4930047;29;20213;-66
2022/07/12 12:47:56;;;;;;;5.68;2.78;;;;;;;;;;4925236;29;20052;-66
2022/07/12 12:50:42;;;;;;;5.85;2.92;;;;;;;;;;4947356;28;20060;-67
2022/07/12 12:53:13;;;;;;;5.43;2.95;;;;;;;;;;4926253;29;20126;-67
2022/07/12 12:55:40;;;;;;;2.47;1.65;;;;;;;;;;4930785;28;20091;-66
2022/07/12 12:58:07;;;;;;;2.90;1.80;;;;;;;;;;4945348;28;20052;-66
2022/07/12 13:00:35;;;;;;;6.78;2.95;;;;;;;;;;4937685;28;20162;-67
2022/07/12 13:03:02;;;;;;;2.50;1.42;;;;;;;;;;4917603;29;20158;-66
2022/07/12 13:05:29;;;;;;;3.17;1.77;;;;;;;;;;4884575;29;20060;-67
2022/07/12 13:07:56;;;;;;;3.63;2.35;;;;;;;;;;4885654;29;20053;-67
2022/07/12 13:10:24;;;;;;;9.80;2.45;;;;;;;;;;4890087;29;20063;-66
2022/07/12 13:12:52;;;;;;;5.60;2.70;;;;;;;;;;4886603;29;20076;-67
2022/07/12 13:15:18;;;;;;;6.97;2.10;;;;;;;;;;4903683;29;20056;-66
2022/07/12 13:17:45;;;;;;;6.45;2.60;;;;;;;;;;4872645;29;20091;-66
2022/07/12 13:20:12;;;;;;;4.25;2.28;;;;;;;;;;4883931;29;20067;-67
2022/07/12 13:22:39;;;;;;;5.55;3.08;;;;;;;;;;4891516;29;20090;-66
2022/07/12 13:25:07;;;;;;;2.85;1.58;;;;;;;;;;4885466;29;20218;-67
2022/07/12 13:27:35;;;;;;;15.73;2.08;;;;;;;;;;4891213;29;20147;-66
2022/07/12 13:30:03;;;;;;;2.90;1.80;;;;;;;;;;4885091;29;20068;-67
2022/07/12 13:32:30;;;;;;;4.75;2.60;;;;;;;;;;4890801;29;20049;-66
2022/07/12 13:34:57;;;;;;;2.75;1.67;;;;;;;;;;4888130;29;20061;-66
2022/07/12 13:37:24;;;;;;;2.35;1.48;;;;;;;;;;4887972;29;20048;-67
2022/07/12 13:42:35;;;;;;;3.72;2.20;;;;;;;;;;4886847;29;20052;-66
2022/07/12 13:45:02;;;;;;;4.43;1.45;;;;;;;;;;4921040;29;20068;-66
2022/07/12 13:47:29;;;;;;;4.40;1.40;;;;;;;;;;4885861;29;20076;-67
2022/07/12 13:49:56;;;;;;;8.35;2.20;;;;;;;;;;4923367;29;20056;-67
2022/07/12 13:52:22;;;;;;;2.58;1.27;;;;;;;;;;4886498;29;20087;-66
2022/07/12 13:54:49;;;;;;;3.72;1.40;;;;;;;;;;4922374;29;20052;-67
2022/07/12 13:57:16;;;;;;;2.35;1.42;;;;;;;;;;4889586;29;20044;-67
2022/07/12 13:59:44;;;;;;;3.03;1.58;;;;;;;;;;4887833;29;20048;-66
2022/07/12 14:02:12;;;;;;;8.90;1.70;;;;;;;;;;4899679;29;20062;-65
2022/07/12 14:04:39;;;;;;;3.17;1.75;;;;;;;;;;4924526;29;20075;-66
2022/07/12 14:07:06;;;;;;;3.17;1.40;;;;;;;;;;4916799;29;20066;-66
2022/07/12 14:09:32;;;;;;;2.80;1.52;;;;;;;;;;4910679;29;20146;-66
2022/07/12 14:12:01;;;;;;;3.78;1.60;;;;;;;;;;4916934;29;20131;-67
2022/07/12 14:17:10;;;;;;;5.07;1.30;;;;;;;;;;4896551;29;20169;-67
2022/07/12 14:19:36;;;;;;;;;;;;;;;;;;4898629;29;20070;-66
2022/07/12 14:22:03;;;;;;;1.67;1.10;;;;;;;;;;4911275;29;19927;-66
2022/07/12 14:24:30;;;;;;;1.80;1.20;;;;;;;;;;4917268;29;20062;-67
2022/07/12 14:26:56;;;;;;;1.65;1.27;;;;;;;;;;4912547;29;20052;-66
2022/07/12 14:29:29;;;;;;;2.17;1.23;;;;;;;;;;4918800;29;20051;-66
2022/07/12 14:31:57;;;;;;;3.20;1.30;;;;;;;;;;4909083;29;20111;-66
2022/07/12 14:34:23;;;;;;;;;;;;;;;;;;4914518;29;20092;-66
2022/07/12 14:36:52;;;;;;;2.92;1.20;;;;;;;;;;4911200;29;19927;-66
2022/07/12 14:39:18;;;;;;;2.42;1.10;;;;;;;;;;4916100;29;20076;-67
2022/07/12 17:03:55;;;;;;;4.90;1.35;;;;;;;;;;4961473;23;20134;-66
2022/07/12 17:06:25;;;;;;;2.55;1.40;;;;;;;;;;4949798;29;20051;-66
2022/07/12 17:08:54;;;;;;;12.35;3.58;;;;;;;;;;4952054;28;20110;-66
2022/07/12 17:11:21;;;;;;;2.55;1.65;;;;;;;;;;4966162;28;20051;-66
2022/07/12 17:13:48;;;;;;;2.85;1.90;;;;;;;;;;4950199;29;20047;-66
2022/07/12 17:16:16;;;;;;;3.25;1.42;;;;;;;;;;4949390;29;20074;-67
2022/07/12 17:18:42;;;;;;;1.95;1.33;;;;;;;;;;4965430;28;20065;-67
2022/07/12 17:21:09;;;;;;;2.25;1.50;;;;;;;;;;4965361;28;20047;-67
2022/07/12 17:23:37;;;;;;;4.13;1.65;;;;;;;;;;4965158;28;20061;-66
2022/07/12 17:26:04;;;;;;;;;;;;;;;;;;4964882;28;20063;-68